Time;durP1;ratioP1;P1;durP2;ratioP2;P2;SDS_P1;SDS_P2;PMS_P1;PMS_P2;Temp;Humidity;BMP_temperature;BMP_pressure;BME280_temperature;BME280_humidity;BME280_pressure;Samples;Min_cycle;Max_cycle;Signal;HPM_P1;HPM_P2
2022/09/07 00:02:13;;;;;;;5.73;3.47;;;;;;;19.55;100.00;101225.78;5189464;28;20034;-84
2022/09/07 00:04:45;;;;;;;7.47;3.73;;;;;;;19.53;100.00;101230.41;5189483;28;20113;-84
2022/09/07 00:07:16;;;;;;;6.30;3.80;;;;;;;19.33;100.00;101222.47;5189522;28;20085;-85
2022/09/07 00:09:47;;;;;;;4.50;3.17;;;;;;;19.55;100.00;101208.03;5190466;28;20030;-83
2022/09/07 00:12:18;;;;;;;4.93;2.70;;;;;;;19.21;100.00;101187.25;5188739;28;20109;-84
2022/09/07 00:14:50;;;;;;;5.83;3.57;;;;;;;19.41;100.00;101192.56;5189708;28;20043;-85
2022/09/07 00:17:21;;;;;;;3.50;2.73;;;;;;;19.25;100.00;101187.81;5190253;28;20038;-85
2022/09/07 00:19:54;;;;;;;6.00;2.90;;;;;;;19.08;100.00;101191.00;5187228;28;20034;-85
2022/09/07 00:22:25;;;;;;;8.07;3.00;;;;;;;18.93;100.00;101185.28;5189775;28;20121;-85
2022/09/07 00:24:56;;;;;;;6.27;3.20;;;;;;;18.92;100.00;101198.69;5188751;28;20121;-84
2022/09/07 00:27:28;;;;;;;6.97;2.87;;;;;;;18.88;100.00;101187.50;5189758;28;20030;-84
2022/09/07 00:29:59;;;;;;;9.23;3.40;;;;;;;19.09;100.00;101194.50;5189886;28;20081;-84
2022/09/07 00:32:30;;;;;;;5.30;3.00;;;;;;;19.19;100.00;101194.53;5187693;28;20045;-84
2022/09/07 00:35:02;;;;;;;4.17;2.53;;;;;;;18.70;100.00;101185.53;5189094;28;20034;-84
2022/09/07 00:37:33;;;;;;;4.20;2.97;;;;;;;18.97;100.00;101191.16;5187259;28;20035;-85
2022/09/07 00:40:05;;;;;;;5.30;3.30;;;;;;;18.87;100.00;101183.16;5189593;28;20113;-85
2022/09/07 00:42:36;;;;;;;8.90;3.30;;;;;;;19.03;100.00;101179.97;5188702;28;20042;-85
2022/09/07 00:45:18;;;;;;;3.97;3.17;;;;;;;18.81;100.00;101175.78;5189569;28;20478;-84
2022/09/07 00:48:05;;;;;;;4.73;3.13;;;;;;;18.79;100.00;101161.78;5187719;28;20061;-85
2022/09/07 00:50:43;;;;;;;4.40;2.57;;;;;;;18.90;100.00;101151.06;5188253;28;20034;-84
2022/09/07 00:53:21;;;;;;;5.40;3.10;;;;;;;18.59;100.00;101144.03;5188953;28;20401;-84
2022/09/07 00:55:53;;;;;;;7.70;4.00;;;;;;;18.34;100.00;101140.09;5189405;28;20057;-83
2022/09/07 00:58:26;;;;;;;5.03;3.30;;;;;;;18.32;100.00;101127.00;5187685;28;20023;-84
2022/09/07 01:00:57;;;;;;;5.80;3.60;;;;;;;18.36;100.00;101133.69;5187629;28;20413;-84
2022/09/07 01:03:33;;;;;;;4.60;3.50;;;;;;;18.65;100.00;101131.22;5188501;28;20034;-84
2022/09/07 01:06:14;;;;;;;4.83;3.07;;;;;;;18.45;100.00;101141.81;5188078;28;20108;-84
2022/09/07 01:08:48;;;;;;;6.13;3.07;;;;;;;18.72;100.00;101150.91;5187055;28;20032;-85
2022/09/07 01:11:22;;;;;;;4.33;2.90;;;;;;;18.47;100.00;101142.50;5192487;23;20039;-85
2022/09/07 01:13:53;;;;;;;3.93;3.30;;;;;;;18.57;100.00;101142.53;5181253;28;20077;-85
2022/09/07 01:16:43;;;;;;;4.30;3.20;;;;;;;18.60;100.00;101148.41;5189962;28;20018;-85
2022/09/07 01:19:40;;;;;;;7.23;3.00;;;;;;;18.76;100.00;101144.34;5186328;28;20270;-84
2022/09/07 01:22:46;;;;;;;6.13;3.70;;;;;;;18.77;100.00;101142.53;5188830;28;20031;-84
2022/09/07 01:25:54;;;;;;;4.53;3.10;;;;;;;18.67;100.00;101150.47;5187384;28;20570;-84
2022/09/07 01:28:28;;;;;;;5.97;3.50;;;;;;;18.30;100.00;101142.19;5186451;28;20022;-84
2022/09/07 01:31:18;;;;;;;;;;;;;;;18.82;100.00;101146.44;5189207;28;20573;-85
2022/09/07 01:34:21;;;;;;;5.33;4.00;;;;;;;18.44;100.00;101156.03;5186360;28;20337;-85
2022/09/07 01:37:17;;;;;;;5.67;3.60;;;;;;;18.28;100.00;101152.09;5187336;28;20049;-84
2022/09/07 01:40:01;;;;;;;5.80;3.50;;;;;;;18.35;100.00;101149.72;5187223;28;20485;-84
2022/09/07 01:42:35;;;;;;;;;;;;;;;18.74;100.00;101156.91;5188792;28;20564;-84
2022/09/07 01:45:12;;;;;;;4.73;3.17;;;;;;;18.32;100.00;101152.66;5188855;28;20431;-86
2022/09/07 01:47:52;;;;;;;4.70;3.23;;;;;;;18.14;100.00;101143.53;5188642;28;20045;-84
2022/09/07 01:50:43;;;;;;;4.20;3.10;;;;;;;18.37;100.00;101148.63;5186954;28;20083;-85
2022/09/07 01:53:22;;;;;;;5.53;2.90;;;;;;;18.09;100.00;101145.72;5187307;28;20026;-84
2022/09/07 01:56:05;;;;;;;6.23;2.97;;;;;;;18.11;100.00;101143.78;5187634;28;20018;-84
2022/09/07 01:58:42;;;;;;;3.60;3.13;;;;;;;18.24;100.00;101154.16;5188814;28;20381;-84
2022/09/07 02:01:22;;;;;;;12.80;3.30;;;;;;;18.02;100.00;101156.03;5189017;28;20034;-74
2022/09/07 02:04:06;;;;;;;4.47;3.30;;;;;;;18.05;100.00;101148.78;5187320;28;20608;-85
2022/09/07 02:06:49;;;;;;;4.90;3.33;;;;;;;17.84;100.00;101153.16;5188735;28;20072;-84
2022/09/07 02:09:35;;;;;;;5.03;3.10;;;;;;;17.93;100.00;101155.97;5188560;28;20118;-84
2022/09/07 02:12:15;;;;;;;4.63;3.13;;;;;;;17.81;100.00;101150.78;5188821;28;20534;-85
2022/09/07 02:14:52;;;;;;;5.80;3.33;;;;;;;17.76;100.00;101143.22;5189137;28;20401;-85
2022/09/07 02:17:31;;;;;;;8.50;3.60;;;;;;;17.83;100.00;101146.19;5188995;28;20026;-84
2022/09/07 02:20:12;;;;;;;3.80;3.03;;;;;;;17.78;100.00;101145.75;5188103;28;20123;-85
2022/09/07 02:22:48;;;;;;;3.60;2.80;;;;;;;18.07;100.00;101139.72;5190339;28;20037;-84
2022/09/07 02:25:24;;;;;;;4.47;3.03;;;;;;;17.73;100.00;101140.00;5191420;28;20044;-84
2022/09/07 02:28:03;;;;;;;9.27;4.17;;;;;;;17.96;100.00;101145.94;5191161;28;20038;-84
2022/09/07 02:30:35;;;;;;;3.40;3.10;;;;;;;17.75;100.00;101148.66;5192553;28;20034;-84
2022/09/07 02:33:07;;;;;;;6.00;4.07;;;;;;;17.61;100.00;101147.19;5192290;28;20462;-83
2022/09/07 02:35:38;;;;;;;3.37;2.80;;;;;;;17.56;100.00;101136.97;5191470;28;20052;-82
2022/09/07 02:38:10;;;;;;;3.77;3.03;;;;;;;17.52;100.00;101146.16;5192651;28;20030;-85
2022/09/07 02:40:41;;;;;;;4.30;3.60;;;;;;;17.56;100.00;101144.09;5191143;28;20050;-84
2022/09/07 02:43:12;;;;;;;5.40;3.83;;;;;;;17.37;100.00;101141.19;5192139;28;20037;-85
2022/09/07 02:45:53;;;;;;;5.60;3.60;;;;;;;17.49;100.00;101138.50;5191126;28;20022;-86
2022/09/07 02:48:48;;;;;;;5.30;3.60;;;;;;;17.64;100.00;101142.47;5190832;28;20026;-81
2022/09/07 02:51:37;;;;;;;5.77;3.40;;;;;;;17.66;100.00;101145.81;5192131;28;20173;-85
2022/09/07 02:54:22;;;;;;;4.03;3.27;;;;;;;17.69;100.00;101134.13;5191077;28;20599;-84
2022/09/07 02:57:22;;;;;;;5.87;3.97;;;;;;;17.78;100.00;101148.38;5191797;28;20433;-85
2022/09/07 03:00:04;;;;;;;4.70;3.83;;;;;;;17.38;100.00;101142.88;5190042;28;20034;-85
2022/09/07 03:02:39;;;;;;;5.17;4.60;;;;;;;17.29;100.00;101144.50;5191009;28;20030;-85
2022/09/07 03:05:19;;;;;;;;;;;;;;;17.68;100.00;101148.31;5191001;28;20445;-86
2022/09/07 03:07:58;;;;;;;4.93;3.97;;;;;;;17.20;100.00;101149.69;5191236;28;19941;-85
2022/09/07 03:10:30;;;;;;;6.43;4.40;;;;;;;17.57;100.00;101151.91;5191082;28;20116;-85
2022/09/07 03:13:02;;;;;;;5.17;4.03;;;;;;;17.57;100.00;101145.75;5194568;28;20122;-84
2022/09/07 03:15:33;;;;;;;6.50;3.90;;;;;;;17.68;100.00;101139.56;5191327;28;20544;-85
2022/09/07 03:18:04;;;;;;;6.87;4.40;;;;;;;17.70;100.00;101142.91;5190812;28;20027;-85
2022/09/07 03:20:35;;;;;;;7.83;5.13;;;;;;;17.45;100.00;101129.13;5188764;28;20034;-84
2022/09/07 03:23:07;;;;;;;4.90;4.20;;;;;;;17.68;100.00;101129.78;5190905;28;20572;-86
2022/09/07 03:25:38;;;;;;;5.97;4.37;;;;;;;17.58;100.00;101131.53;5189964;28;20038;-85
2022/09/07 03:28:10;;;;;;;5.07;4.53;;;;;;;17.81;100.00;101129.56;5191632;28;20033;-85
2022/09/07 03:30:48;;;;;;;4.20;3.80;;;;;;;17.75;100.00;101125.63;5190937;28;20033;-82
2022/09/07 03:33:19;;;;;;;6.00;4.47;;;;;;;17.83;100.00;101143.53;5189232;28;20026;-85
2022/09/07 03:36:00;;;;;;;4.50;4.10;;;;;;;17.92;100.00;101141.06;5191281;28;20034;-85
2022/09/07 03:38:31;;;;;;;5.80;4.87;;;;;;;17.87;100.00;101134.31;5191527;28;20026;-85
2022/09/07 03:41:05;;;;;;;6.53;4.20;;;;;;;17.89;100.00;101132.41;5191486;28;20030;-85
2022/09/07 03:43:36;;;;;;;4.93;4.03;;;;;;;17.94;100.00;101136.47;5191692;28;20037;-85
2022/09/07 03:46:09;;;;;;;6.73;3.80;;;;;;;17.85;100.00;101128.34;5182402;28;20030;-85
2022/09/07 03:48:40;;;;;;;6.37;4.13;;;;;;;17.72;100.00;101144.44;5169689;28;20403;-85
2022/09/07 03:51:12;;;;;;;6.93;4.87;;;;;;;17.83;100.00;101135.59;5180424;28;20041;-85
2022/09/07 03:53:45;;;;;;;6.93;4.70;;;;;;;17.66;100.00;101132.56;5190072;28;20038;-85
2022/09/07 03:56:20;;;;;;;5.67;4.60;;;;;;;17.81;100.00;101126.94;5182317;28;20155;-85
2022/09/07 03:58:53;;;;;;;6.33;4.40;;;;;;;17.86;100.00;101134.47;5172377;28;20095;-85
2022/09/07 04:01:25;;;;;;;4.70;4.22;;;;;;;17.85;100.00;101120.41;5184566;28;20057;-85
2022/09/07 04:04:01;;;;;;;4.63;4.10;;;;;;;17.52;100.00;101117.84;5188592;28;20567;-86
2022/09/07 04:06:32;;;;;;;6.67;4.57;;;;;;;17.58;100.00;101100.63;5179511;28;20058;-85
2022/09/07 04:09:06;;;;;;;8.10;4.37;;;;;;;17.78;100.00;101108.66;5170232;28;20520;-85
2022/09/07 04:11:39;;;;;;;6.00;4.05;;;;;;;17.64;100.00;101094.81;5170349;28;20054;-85
2022/09/07 04:14:10;;;;;;;7.10;5.60;;;;;;;17.57;100.00;101090.16;5168983;28;20034;-85
2022/09/07 04:16:44;;;;;;;7.00;5.17;;;;;;;17.71;100.00;101092.47;5169613;28;20118;-85
2022/09/07 04:19:16;;;;;;;7.05;5.35;;;;;;;17.39;100.00;101083.66;5169153;28;20497;-86
2022/09/07 04:21:47;;;;;;;6.27;5.23;;;;;;;17.40;100.00;101076.56;5169334;28;20042;-85
2022/09/07 04:24:18;;;;;;;7.50;4.70;;;;;;;17.50;100.00;101077.47;5170533;28;20018;-85
2022/09/07 04:26:50;;;;;;;5.73;5.00;;;;;;;17.50;100.00;101081.91;5181299;28;20126;-85
2022/09/07 04:29:21;;;;;;;5.13;4.63;;;;;;;17.59;100.00;101094.38;5176357;28;20031;-85
2022/09/07 04:31:52;;;;;;;6.67;5.87;;;;;;;17.36;100.00;101106.91;5168082;28;20027;-90
2022/09/07 04:34:24;;;;;;;6.10;5.37;;;;;;;17.51;100.00;101116.19;5172381;28;20033;-90
2022/09/07 04:36:55;;;;;;;5.70;4.97;;;;;;;17.21;100.00;101106.41;5177903;28;20023;-92
2022/09/07 04:39:26;;;;;;;6.27;5.67;;;;;;;17.49;100.00;101110.19;5173733;28;20035;-85
2022/09/07 04:41:57;;;;;;;10.47;6.23;;;;;;;17.48;100.00;101105.88;5169881;28;20070;-73
2022/09/07 04:44:29;;;;;;;7.43;5.40;;;;;;;17.17;100.00;101100.53;5167960;28;20085;-77
2022/09/07 04:47:00;;;;;;;5.93;5.13;;;;;;;17.27;100.00;101108.53;5167960;28;20061;-78
2022/09/07 04:49:31;;;;;;;6.10;4.73;;;;;;;17.49;100.00;101114.66;5170694;28;20039;-79
2022/09/07 04:52:02;;;;;;;5.30;4.80;;;;;;;17.29;100.00;101111.88;5169932;28;20039;-87
2022/09/07 04:54:34;;;;;;;7.47;5.00;;;;;;;17.48;100.00;101097.06;5176334;28;20030;-82
2022/09/07 04:57:05;;;;;;;5.80;5.20;;;;;;;17.47;100.00;101108.66;5176193;28;20432;-83
2022/09/07 04:59:36;;;;;;;6.43;5.50;;;;;;;17.56;100.00;101113.13;5169035;28;20469;-82
2022/09/07 05:02:07;;;;;;;7.87;6.00;;;;;;;17.51;100.00;101104.75;5178900;28;20113;-82
2022/09/07 05:04:39;;;;;;;7.00;5.50;;;;;;;17.58;100.00;101111.22;5169375;28;20424;-81
2022/09/07 05:07:10;;;;;;;6.87;5.10;;;;;;;17.52;100.00;101095.84;5187511;28;20029;-81
2022/09/07 05:09:41;;;;;;;8.13;5.93;;;;;;;17.57;100.00;101092.81;5209073;28;20065;-81
2022/09/07 05:12:13;;;;;;;8.30;5.87;;;;;;;17.51;100.00;101084.41;5198862;28;20200;-81
2022/09/07 05:14:44;;;;;;;6.13;5.53;;;;;;;17.25;100.00;101084.00;5187217;28;20756;-81
2022/09/07 05:17:15;;;;;;;8.43;6.17;;;;;;;17.38;100.00;101087.28;5182074;28;20129;-80
2022/09/07 05:19:47;;;;;;;6.87;5.20;;;;;;;17.27;100.00;101090.00;5188309;28;20054;-79
2022/09/07 05:22:18;;;;;;;6.73;6.13;;;;;;;17.44;100.00;101098.34;5188550;28;20038;-81
2022/09/07 05:24:49;;;;;;;6.77;5.93;;;;;;;17.42;100.00;101101.94;5203412;28;20030;-79
2022/09/07 05:27:21;;;;;;;8.77;6.33;;;;;;;17.34;100.00;101085.88;5208519;28;20246;-80
2022/09/07 05:29:52;;;;;;;10.87;6.53;;;;;;;17.20;100.00;101100.28;5207747;28;20088;-79
2022/09/07 05:32:24;;;;;;;7.20;6.50;;;;;;;17.32;100.00;101101.03;5196335;28;20073;-81
2022/09/07 05:34:55;;;;;;;8.23;7.37;;;;;;;17.38;100.00;101100.53;5180981;28;20014;-84
2022/09/07 05:37:26;;;;;;;12.23;7.47;;;;;;;17.10;100.00;101102.00;5182585;28;20034;-79
2022/09/07 05:39:58;;;;;;;9.33;7.23;;;;;;;17.28;100.00;101102.25;5174195;28;20122;-82
2022/09/07 05:42:30;;;;;;;9.27;7.27;;;;;;;17.34;100.00;101096.47;5187973;28;20417;-83
2022/09/07 05:45:01;;;;;;;10.07;8.30;;;;;;;17.41;100.00;101108.22;5189343;28;20038;-80
2022/09/07 05:47:33;;;;;;;11.30;9.47;;;;;;;17.46;100.00;101112.25;5188344;28;20037;-81
2022/09/07 05:50:06;;;;;;;13.60;9.47;;;;;;;17.51;100.00;101115.34;5186326;28;20026;-82
2022/09/07 05:52:37;;;;;;;15.27;9.50;;;;;;;17.38;100.00;101115.56;5188860;28;20489;-82
2022/09/07 05:55:08;;;;;;;10.73;8.97;;;;;;;17.44;100.00;101108.91;5184221;28;20077;-82
2022/09/07 05:57:40;;;;;;;21.93;10.63;;;;;;;17.48;100.00;101110.31;5181449;28;20125;-82
2022/09/07 06:00:13;;;;;;;13.30;10.53;;;;;;;17.56;100.00;101121.09;5180692;28;20065;-81
2022/09/07 06:02:44;;;;;;;11.67;9.97;;;;;;;17.47;100.00;101125.34;5182417;28;20089;-83
2022/09/07 06:05:16;;;;;;;11.73;9.30;;;;;;;17.59;100.00;101130.59;5176623;28;20579;-85
2022/09/07 06:07:47;;;;;;;11.57;10.10;;;;;;;17.46;100.00;101130.78;5170647;28;20077;-73
2022/09/07 06:10:19;;;;;;;13.47;10.13;;;;;;;17.38;100.00;101121.72;5177628;28;20053;-82
2022/09/07 06:12:50;;;;;;;18.10;10.50;;;;;;;17.40;100.00;101121.56;5177692;28;20098;-76
2022/09/07 06:15:21;;;;;;;11.83;9.97;;;;;;;17.45;100.00;101131.75;5179877;28;20026;-90
2022/09/07 06:17:53;;;;;;;17.47;11.60;;;;;;;17.45;100.00;101122.03;5180412;28;20129;-91
2022/09/07 06:20:24;;;;;;;13.17;11.60;;;;;;;17.48;100.00;101126.19;5183525;28;20457;-91
2022/09/07 06:22:55;;;;;;;15.83;11.77;;;;;;;17.51;100.00;101125.94;5186581;28;20046;-92
2022/09/07 06:25:26;;;;;;;14.17;12.67;;;;;;;17.54;100.00;101142.41;5185117;28;20023;-91
2022/09/07 06:27:58;;;;;;;15.83;13.93;;;;;;;17.58;100.00;101140.34;5188394;28;20176;-90
2022/09/07 06:30:29;;;;;;;16.17;14.47;;;;;;;17.64;100.00;101141.63;5191493;28;20046;-90
2022/09/07 06:33:01;;;;;;;17.27;13.83;;;;;;;17.57;100.00;101140.47;5186625;28;20405;-92
2022/09/07 06:35:32;;;;;;;18.27;16.37;;;;;;;17.61;100.00;101126.81;5183190;28;20558;-90
2022/09/07 06:38:03;;;;;;;19.20;17.10;;;;;;;17.59;100.00;101142.03;5182688;28;20042;-88
2022/09/07 06:40:34;;;;;;;22.70;20.30;;;;;;;17.55;100.00;101143.25;5181854;28;20481;-88
2022/09/07 06:43:06;;;;;;;22.80;19.93;;;;;;;17.56;100.00;101150.22;5177795;28;20737;-88
2022/09/07 06:45:37;;;;;;;24.37;19.10;;;;;;;17.53;100.00;101139.88;5176394;28;20031;-83
2022/09/07 06:48:08;;;;;;;25.60;20.23;;;;;;;17.51;100.00;101153.25;5176799;28;20042;-85
2022/09/07 06:50:40;;;;;;;25.60;21.43;;;;;;;17.62;100.00;101143.56;5176159;28;20655;-85
2022/09/07 06:53:11;;;;;;;22.63;20.33;;;;;;;17.65;100.00;101153.88;5175624;28;20508;-86
2022/09/07 06:55:45;;;;;;;27.40;21.93;;;;;;;17.70;100.00;101156.97;5176078;28;20038;-86
2022/09/07 06:58:17;;;;;;;26.63;23.35;;;;;;;17.77;100.00;101163.44;5175622;28;20030;-84
2022/09/07 07:00:48;;;;;;;25.30;22.20;;;;;;;17.59;100.00;101155.28;5176210;28;20092;-85
2022/09/07 07:03:20;;;;;;;24.03;21.40;;;;;;;17.78;100.00;101164.28;5175517;28;20053;-85
2022/09/07 07:05:52;;;;;;;25.27;22.70;;;;;;;17.72;100.00;101164.78;5176868;28;20034;-85
2022/09/07 07:08:24;;;;;;;26.93;24.13;;;;;;;17.87;100.00;101160.81;5177801;28;20022;-76
2022/09/07 07:11:01;;;;;;;26.70;23.93;;;;;;;18.02;100.00;101157.81;5178255;28;20418;-75
2022/09/07 07:13:33;;;;;;;26.80;23.93;;;;;;;18.05;100.00;101160.19;5180688;28;20498;-73
2022/09/07 07:16:10;;;;;;;25.90;22.57;;;;;;;18.17;100.00;101163.63;5178929;28;20461;-76
2022/09/07 07:18:43;;;;;;;28.47;23.93;;;;;;;18.31;100.00;101159.75;5178708;28;20132;-74
2022/09/07 07:21:14;;;;;;;25.83;23.13;;;;;;;18.50;100.00;101163.44;5178270;28;20034;-75
2022/09/07 07:23:49;;;;;;;26.50;23.73;;;;;;;18.58;100.00;101170.72;5179113;28;21323;-71
2022/09/07 07:26:25;;;;;;;28.23;25.40;;;;;;;18.68;100.00;101168.06;5178997;28;20908;-71
2022/09/07 07:28:56;;;;;;;27.90;24.23;;;;;;;18.76;100.00;101168.22;5179191;28;20037;-82
2022/09/07 07:31:29;;;;;;;28.87;25.50;;;;;;;18.88;100.00;101176.06;5180275;28;20030;-82
2022/09/07 07:34:00;;;;;;;26.90;24.00;;;;;;;19.02;100.00;101167.69;5176905;28;20042;-80
2022/09/07 07:36:32;;;;;;;27.67;25.07;;;;;;;19.19;100.00;101182.09;5180132;28;20519;-83
2022/09/07 07:39:04;;;;;;;25.70;23.17;;;;;;;19.39;100.00;101167.97;5179241;28;20092;-83
2022/09/07 07:41:35;;;;;;;25.60;22.80;;;;;;;19.33;100.00;101178.16;5180703;28;21394;-84
2022/09/07 07:44:07;;;;;;;28.57;23.53;;;;;;;19.30;100.00;101174.94;5181459;28;20031;-84
2022/09/07 07:46:39;;;;;;;25.10;22.43;;;;;;;19.61;100.00;101173.91;5181174;28;20108;-84
2022/09/07 07:49:10;;;;;;;23.60;21.23;;;;;;;19.85;100.00;101169.91;5178990;28;20026;-84
2022/09/07 07:51:42;;;;;;;23.40;21.23;;;;;;;20.62;100.00;101175.00;5181728;28;20042;-84
2022/09/07 07:54:13;;;;;;;21.58;19.50;;;;;;;21.18;100.00;101174.03;5183045;28;20558;-76
2022/09/07 07:56:44;;;;;;;22.63;19.42;;;;;;;21.66;100.00;101175.53;5179940;28;20038;-85
2022/09/07 07:59:15;;;;;;;22.52;18.90;;;;;;;21.85;100.00;101185.97;5179323;28;20125;-85
2022/09/07 08:01:47;;;;;;;19.85;17.92;;;;;;;22.32;98.19;101180.34;5180962;28;20034;-85
2022/09/07 08:04:18;;;;;;;19.80;17.58;;;;;;;22.78;95.77;101187.97;5178298;28;20034;-85
2022/09/07 08:06:49;;;;;;;18.52;16.60;;;;;;;22.93;94.31;101193.53;5180732;28;20121;-85
2022/09/07 08:09:20;;;;;;;18.73;16.83;;;;;;;22.94;88.59;101195.19;5186786;28;20034;-85
2022/09/07 08:11:52;;;;;;;15.48;14.07;;;;;;;23.11;85.97;101183.66;5190602;28;20077;-84
2022/09/07 08:14:23;;;;;;;17.83;16.13;;;;;;;23.71;88.34;101199.47;5190386;28;20041;-85
2022/09/07 08:16:54;;;;;;;15.93;13.60;;;;;;;24.26;82.24;101202.34;5190215;28;20038;-85
2022/09/07 08:19:26;;;;;;;15.75;14.30;;;;;;;24.53;81.33;101194.81;5188506;28;20157;-86
2022/09/07 08:21:57;;;;;;;15.75;13.80;;;;;;;25.00;77.73;101186.81;5190742;28;20053;-85
2022/09/07 08:24:32;;;;;;;14.30;12.95;;;;;;;-150.27;100.00;61272.81;5188159;28;20038;-85
2022/09/07 08:27:04;;;;;;;16.55;13.38;;;;;;;25.32;76.27;101200.09;5188419;28;20038;-85
2022/09/07 08:29:35;;;;;;;16.65;13.50;;;;;;;25.66;73.16;101190.75;5189973;28;20026;-85
2022/09/07 08:32:06;;;;;;;16.95;12.68;;;;;;;25.97;69.69;101205.00;5189945;28;20022;-85
2022/09/07 08:34:38;;;;;;;13.32;11.95;;;;;;;26.63;70.16;101200.63;5188666;28;20450;-85
2022/09/07 08:37:09;;;;;;;12.50;11.32;;;;;;;27.21;64.71;101212.34;5189885;28;20699;-85
2022/09/07 08:39:41;;;;;;;13.48;12.20;;;;;;;27.94;63.68;101215.72;5189172;28;20520;-86
2022/09/07 08:42:37;;;;;;;13.68;12.25;;;;;;;28.32;55.50;101208.19;5189828;28;20481;-85
2022/09/07 08:45:16;;;;;;;12.75;10.98;;;;;;;28.23;52.41;101213.75;5189905;28;20034;-87
2022/09/07 08:47:50;;;;;;;10.38;9.38;;;;;;;28.84;50.40;101208.53;5187404;28;20026;-87
2022/09/07 08:50:29;;;;;;;11.10;10.00;;;;;;;28.71;50.10;101213.91;5188638;28;20092;-87
2022/09/07 08:53:11;;;;;;;9.80;8.82;;;;;;;29.09;49.97;101204.41;5188137;28;20550;-86
2022/09/07 08:55:55;;;;;;;13.25;8.38;;;;;;;29.15;51.71;101198.19;5189206;28;20113;-86
2022/09/07 08:58:31;;;;;;;;;;;;;;;30.64;48.85;101219.31;5189326;28;20061;-86
2022/09/07 09:01:10;;;;;;;10.02;7.75;;;;;;;29.75;49.11;101220.75;5189813;28;19914;-87
2022/09/07 09:03:42;;;;;;;8.90;6.82;;;;;;;29.92;45.63;101213.00;5188005;28;20033;-87
2022/09/07 09:06:28;;;;;;;8.38;7.05;;;;;;;30.70;45.15;101212.22;5187263;28;20034;-87
2022/09/07 09:09:45;;;;;;;7.43;6.70;;;;;;;31.11;45.08;101204.63;5188288;28;20026;-88
2022/09/07 09:12:42;;;;;;;7.70;6.82;;;;;;;31.34;42.07;101219.41;5166308;28;20042;-87
2022/09/07 09:15:44;;;;;;;7.38;6.10;;;;;;;32.05;43.05;101222.88;5187585;28;20509;-86
2022/09/07 09:18:49;;;;;;;7.63;6.70;;;;;;;32.18;41.77;101225.38;5185668;28;20089;-87
2022/09/07 09:21:20;;;;;;;6.82;5.80;;;;;;;30.89;41.81;101210.44;5188360;28;20030;-86
2022/09/07 09:23:59;;;;;;;6.55;5.90;;;;;;;32.09;40.78;101215.91;5188882;28;20084;-87
2022/09/07 09:26:32;;;;;;;7.53;5.50;;;;;;;32.05;39.65;101210.13;5186685;28;20474;-88
2022/09/07 09:29:16;;;;;;;7.78;5.45;;;;;;;32.94;39.39;101215.09;5188864;28;20018;-87
2022/09/07 09:31:47;;;;;;;10.48;6.35;;;;;;;33.54;36.99;101213.25;5187063;28;20034;-86
2022/09/07 09:34:19;;;;;;;9.13;6.38;;;;;;;33.22;36.51;101212.81;5187448;28;20030;-86
2022/09/07 09:36:53;;;;;;;7.57;5.87;;;;;;;31.99;39.02;101219.19;5188033;28;20041;-85
2022/09/07 09:39:35;;;;;;;7.50;4.90;;;;;;;33.93;37.55;101214.59;5187288;28;20037;-87
2022/09/07 09:42:10;;;;;;;6.43;4.80;;;;;;;32.61;38.00;101224.63;5188544;28;20026;-86
2022/09/07 09:44:42;;;;;;;6.63;4.10;;;;;;;33.13;36.32;101204.19;5190042;28;20469;-86
2022/09/07 09:47:25;;;;;;;4.95;3.50;;;;;;;33.29;37.70;101203.47;5190436;28;20026;-87
2022/09/07 09:50:00;;;;;;;5.32;3.03;;;;;;;33.92;34.94;101219.19;5189459;28;20117;-86
2022/09/07 09:52:35;;;;;;;7.43;3.33;;;;;;;33.29;35.40;101211.63;5187845;28;20023;-87
2022/09/07 09:55:24;;;;;;;6.78;3.88;;;;;;;33.38;36.50;101211.25;5188608;28;20026;-86
2022/09/07 09:58:04;;;;;;;8.13;3.20;;;;;;;33.40;35.44;101212.69;5187004;28;20030;-86
2022/09/07 10:00:36;;;;;;;7.63;3.38;;;;;;;33.26;35.16;101219.41;5188536;28;20501;-86
2022/09/07 10:03:13;;;;;;;7.30;2.60;;;;;;;33.66;34.30;101215.13;5186863;28;20109;-86
2022/09/07 10:05:46;;;;;;;9.18;2.78;;;;;;;32.52;34.50;101214.06;5188484;28;20034;-86
2022/09/07 10:08:29;;;;;;;6.97;2.80;;;;;;;32.25;35.86;101203.63;5186218;28;20021;-86
2022/09/07 10:11:06;;;;;;;5.50;2.85;;;;;;;32.09;35.94;101205.91;5187929;28;20058;-80
2022/09/07 10:13:53;;;;;;;5.95;2.70;;;;;;;31.17;38.32;101202.91;5187837;28;20570;-81
2022/09/07 10:16:40;;;;;;;7.10;2.70;;;;;;;30.71;39.07;101200.34;5188790;28;20018;-85
2022/09/07 10:19:34;;;;;;;7.47;2.30;;;;;;;30.98;38.92;101191.22;5188191;28;20034;-83
2022/09/07 10:22:33;;;;;;;6.93;2.50;;;;;;;30.36;39.34;101184.56;5170282;28;20122;-77
2022/09/07 10:25:40;;;;;;;9.63;2.60;;;;;;;30.83;38.21;101195.09;5167556;28;20113;-76
2022/09/07 10:28:23;;;;;;;5.60;2.05;;;;;;;30.62;37.88;101193.53;5167520;28;20042;-78
2022/09/07 10:31:05;;;;;;;6.03;2.13;;;;;;;29.90;39.81;101198.88;5185998;28;20022;-78
2022/09/07 10:34:00;;;;;;;5.72;2.05;;;;;;;30.91;37.90;101192.09;5187336;28;20026;-78
2022/09/07 10:36:57;;;;;;;7.57;2.33;;;;;;;30.88;38.56;101186.31;5183906;28;20034;-82
2022/09/07 10:39:40;;;;;;;5.50;1.88;;;;;;;31.10;38.05;101189.47;5186279;28;20042;-82
2022/09/07 10:42:31;;;;;;;5.00;1.95;;;;;;;31.14;37.84;101185.25;5188813;28;20030;-84
2022/09/07 10:45:15;;;;;;;10.20;2.90;;;;;;;31.26;37.58;101182.63;5192575;28;20030;-84
2022/09/07 10:48:10;;;;;;;7.40;2.30;;;;;;;31.32;38.44;101180.09;5188690;28;20057;-83
2022/09/07 10:50:55;;;;;;;10.18;2.45;;;;;;;31.30;36.92;101182.22;5185882;28;20423;-88
2022/09/07 10:53:44;;;;;;;9.07;2.40;;;;;;;31.22;36.63;101176.03;5174525;28;20101;-82
2022/09/07 10:56:24;;;;;;;6.47;1.80;;;;;;;30.99;38.21;101174.78;5175354;28;20601;-84
2022/09/07 10:59:04;;;;;;;4.63;2.25;;;;;;;29.79;39.79;101175.25;5173275;28;20557;-87
2022/09/07 11:02:00;;;;;;;4.80;1.80;;;;;;;30.50;39.90;101174.50;5180968;28;20490;-87
2022/09/07 11:04:50;;;;;;;6.18;2.30;;;;;;;30.52;39.03;101167.00;5175757;28;20038;-81
2022/09/07 11:07:30;;;;;;;4.72;1.95;;;;;;;30.15;39.90;101168.44;5173302;28;20048;-87
2022/09/07 11:10:18;;;;;;;6.10;1.80;;;;;;;30.01;39.50;101167.69;5183556;28;20046;-86
2022/09/07 11:12:53;;;;;;;6.80;2.40;;;;;;;29.81;39.26;101170.50;5179151;28;20034;-84
2022/09/07 11:15:31;;;;;;;4.25;1.80;;;;;;;30.20;38.48;101167.78;5177724;28;20101;-86
2022/09/07 11:18:15;;;;;;;6.45;1.92;;;;;;;30.16;37.96;101156.59;5172869;28;20082;-81
2022/09/07 11:20:54;;;;;;;5.72;2.35;;;;;;;29.84;37.31;101161.97;5175165;28;20091;-81
2022/09/07 11:23:32;;;;;;;6.30;2.25;;;;;;;29.68;39.43;101164.09;5182263;28;20038;-88
2022/09/07 11:26:12;;;;;;;7.03;2.28;;;;;;;29.93;38.80;101162.53;5181983;28;20611;-87
2022/09/07 11:28:48;;;;;;;5.03;2.10;;;;;;;28.94;42.37;101161.47;5179500;28;20050;-74
2022/09/07 11:31:33;;;;;;;9.13;2.38;;;;;;;29.43;41.01;101161.25;5180075;28;20041;-82
2022/09/07 11:34:13;;;;;;;6.60;2.33;;;;;;;29.81;38.57;101154.28;5182680;28;20030;-83
2022/09/07 11:36:52;;;;;;;9.30;2.63;;;;;;;29.71;38.55;101152.03;5189676;28;20030;-91
2022/09/07 11:39:53;;;;;;;5.93;2.40;;;;;;;29.77;39.96;101161.16;5171883;28;20031;-88
2022/09/07 11:42:51;;;;;;;14.70;2.88;;;;;;;29.86;40.04;101159.88;5176250;28;20092;-87
2022/09/07 11:45:39;;;;;;;5.50;1.80;;;;;;;29.81;39.29;101162.38;5173696;28;20053;-81
2022/09/07 11:48:31;;;;;;;8.48;1.80;;;;;;;29.95;39.45;101157.75;5173641;28;20039;-88
2022/09/07 11:51:28;;;;;;;8.57;2.13;;;;;;;30.11;38.16;101151.00;5187607;28;20069;-89
2022/09/07 11:54:14;;;;;;;5.93;2.05;;;;;;;30.01;38.63;101153.34;5186805;28;20034;-91
2022/09/07 11:56:54;;;;;;;5.38;2.20;;;;;;;30.01;37.68;101154.19;5191588;28;20065;-88
2022/09/07 11:59:39;;;;;;;8.73;2.20;;;;;;;29.87;38.91;101148.03;5188332;28;20073;-91
2022/09/07 12:02:25;;;;;;;6.43;2.13;;;;;;;29.76;37.85;101154.91;5182586;28;20105;-90